sensor_id;sensor_type;location;lat;lon;timestamp;pressure;altitude;pressure_sealevel;temperature;humidity
77662;BME280;69666;52.136;5.424;2023-10-31T00:00:08;148790.78;;;10.78;100.00
77662;BME280;69666;52.136;5.424;2023-10-31T00:02:40;148785.66;;;10.76;100.00
77662;BME280;69666;52.136;5.424;2023-10-31T00:05:09;148781.81;;;10.75;100.00
77662;BME280;69666;52.136;5.424;2023-10-31T00:07:39;148776.69;;;10.73;100.00
77662;BME280;69666;52.136;5.424;2023-10-31T00:10:08;148779.25;;;10.74;100.00
77662;BME280;69666;52.136;5.424;2023-10-31T00:12:38;148783.09;;;10.75;100.00
77662;BME280;69666;52.136;5.424;2023-10-31T00:15:07;148775.41;;;10.72;100.00
77662;BME280;69666;52.136;5.424;2023-10-31T00:17:37;148779.25;;;10.74;100.00
77662;BME280;69666;52.136;5.424;2023-10-31T00:20:07;148776.69;;;10.73;100.00
77662;BME280;69666;52.136;5.424;2023-10-31T00:22:36;148771.63;;;10.71;100.00
77662;BME280;69666;52.136;5.424;2023-10-31T00:25:06;148766.50;;;10.69;100.00
77662;BME280;69666;52.136;5.424;2023-10-31T00:27:35;148766.50;;;10.69;100.00
77662;BME280;69666;52.136;5.424;2023-10-31T00:30:05;148771.63;;;10.71;100.00
77662;BME280;69666;52.136;5.424;2023-10-31T00:32:35;148758.81;;;10.66;100.00
77662;BME280;69666;52.136;5.424;2023-10-31T00:35:05;148766.50;;;10.69;100.00
77662;BME280;69666;52.136;5.424;2023-10-31T00:37:34;148771.63;;;10.71;100.00
77662;BME280;69666;52.136;5.424;2023-10-31T00:40:04;148770.34;;;10.70;100.00
77662;BME280;69666;52.136;5.424;2023-10-31T00:42:33;148760.09;;;10.66;100.00
77662;BME280;69666;52.136;5.424;2023-10-31T00:45:03;148763.94;;;10.68;100.00
77662;BME280;69666;52.136;5.424;2023-10-31T00:47:34;148770.34;;;10.70;100.00
77662;BME280;69666;52.136;5.424;2023-10-31T00:50:04;148767.78;;;10.69;100.00
77662;BME280;69666;52.136;5.424;2023-10-31T00:52:34;148760.09;;;10.66;100.00
77662;BME280;69666;52.136;5.424;2023-10-31T00:55:04;148758.81;;;10.66;100.00
77662;BME280;69666;52.136;5.424;2023-10-31T00:57:34;148753.69;;;10.64;100.00
77662;BME280;69666;52.136;5.424;2023-10-31T01:00:04;148754.97;;;10.64;100.00
77662;BME280;69666;52.136;5.424;2023-10-31T01:02:33;148749.84;;;10.62;100.00
77662;BME280;69666;52.136;5.424;2023-10-31T01:05:03;148749.84;;;10.62;100.00
77662;BME280;69666;52.136;5.424;2023-10-31T01:07:32;148749.84;;;10.62;100.00
77662;BME280;69666;52.136;5.424;2023-10-31T01:10:03;148749.84;;;10.62;100.00
77662;BME280;69666;52.136;5.424;2023-10-31T01:12:32;148751.13;;;10.63;100.00
77662;BME280;69666;52.136;5.424;2023-10-31T01:15:02;148758.81;;;10.66;100.00
77662;BME280;69666;52.136;5.424;2023-10-31T01:17:32;148757.53;;;10.65;100.00
77662;BME280;69666;52.136;5.424;2023-10-31T01:20:02;148757.53;;;10.65;100.00
77662;BME280;69666;52.136;5.424;2023-10-31T01:22:32;148761.38;;;10.67;100.00
77662;BME280;69666;52.136;5.424;2023-10-31T01:25:01;148751.13;;;10.63;100.00
77662;BME280;69666;52.136;5.424;2023-10-31T01:27:31;148758.81;;;10.66;100.00
77662;BME280;69666;52.136;5.424;2023-10-31T01:30:00;148749.84;;;10.62;100.00
77662;BME280;69666;52.136;5.424;2023-10-31T01:32:29;148749.84;;;10.62;100.00
77662;BME280;69666;52.136;5.424;2023-10-31T01:34:59;148761.38;;;10.67;100.00
77662;BME280;69666;52.136;5.424;2023-10-31T01:37:29;148758.81;;;10.66;100.00
77662;BME280;69666;52.136;5.424;2023-10-31T01:39:59;148765.22;;;10.68;100.00
77662;BME280;69666;52.136;5.424;2023-10-31T01:42:28;148766.50;;;10.69;100.00
77662;BME280;69666;52.136;5.424;2023-10-31T01:44:57;148769.06;;;10.70;100.00
77662;BME280;69666;52.136;5.424;2023-10-31T01:47:27;148766.50;;;10.69;100.00
77662;BME280;69666;52.136;5.424;2023-10-31T01:49:58;148771.63;;;10.71;100.00
77662;BME280;69666;52.136;5.424;2023-10-31T01:52:28;148783.09;;;10.75;100.00
77662;BME280;69666;52.136;5.424;2023-10-31T01:55:02;148789.50;;;10.78;100.00
77662;BME280;69666;52.136;5.424;2023-10-31T01:57:33;148788.22;;;10.77;100.00
77662;BME280;69666;52.136;5.424;2023-10-31T02:00:03;148792.06;;;10.79;100.00
77662;BME280;69666;52.136;5.424;2023-10-31T02:02:40;148795.91;;;10.80;100.00
77662;BME280;69666;52.136;5.424;2023-10-31T02:05:11;148798.47;;;10.81;100.00
77662;BME280;69666;52.136;5.424;2023-10-31T02:07:45;148795.91;;;10.80;100.00
77662;BME280;69666;52.136;5.424;2023-10-31T02:10:14;148797.19;;;10.81;100.00
77662;BME280;69666;52.136;5.424;2023-10-31T02:12:44;148800.97;;;10.82;100.00
77662;BME280;69666;52.136;5.424;2023-10-31T02:15:13;148806.09;;;10.84;100.00
77662;BME280;69666;52.136;5.424;2023-10-31T02:17:43;148802.25;;;10.83;100.00
77662;BME280;69666;52.136;5.424;2023-10-31T02:20:12;148807.38;;;10.85;100.00
77662;BME280;69666;52.136;5.424;2023-10-31T02:22:42;148815.06;;;10.88;100.00
77662;BME280;69666;52.136;5.424;2023-10-31T02:25:18;148808.66;;;10.85;100.00
77662;BME280;69666;52.136;5.424;2023-10-31T02:27:47;148815.06;;;10.88;100.00
77662;BME280;69666;52.136;5.424;2023-10-31T02:30:17;148813.78;;;10.87;100.00
77662;BME280;69666;52.136;5.424;2023-10-31T02:32:46;148815.06;;;10.88;100.00
77662;BME280;69666;52.136;5.424;2023-10-31T02:35:17;148812.50;;;10.87;100.00
77662;BME280;69666;52.136;5.424;2023-10-31T02:37:47;148800.97;;;10.82;100.00
77662;BME280;69666;52.136;5.424;2023-10-31T02:40:17;148806.09;;;10.84;100.00
77662;BME280;69666;52.136;5.424;2023-10-31T02:42:47;148804.81;;;10.84;100.00
77662;BME280;69666;52.136;5.424;2023-10-31T02:45:16;148804.81;;;10.84;100.00
77662;BME280;69666;52.136;5.424;2023-10-31T02:47:46;148800.97;;;10.82;100.00
77662;BME280;69666;52.136;5.424;2023-10-31T02:50:16;148802.25;;;10.83;100.00
77662;BME280;69666;52.136;5.424;2023-10-31T02:52:45;148809.94;;;10.86;100.00
77662;BME280;69666;52.136;5.424;2023-10-31T02:55:15;148808.66;;;10.85;100.00
77662;BME280;69666;52.136;5.424;2023-10-31T02:57:44;148804.81;;;10.84;100.00
77662;BME280;69666;52.136;5.424;2023-10-31T03:00:14;148803.53;;;10.83;100.00
77662;BME280;69666;52.136;5.424;2023-10-31T03:02:44;148798.47;;;10.81;100.00
77662;BME280;69666;52.136;5.424;2023-10-31T03:05:13;148804.81;;;10.84;100.00
77662;BME280;69666;52.136;5.424;2023-10-31T03:07:44;148800.97;;;10.82;100.00
77662;BME280;69666;52.136;5.424;2023-10-31T03:10:14;148797.19;;;10.81;100.00
77662;BME280;69666;52.136;5.424;2023-10-31T03:12:43;148807.38;;;10.85;100.00
77662;BME280;69666;52.136;5.424;2023-10-31T03:15:13;148803.53;;;10.83;100.00
77662;BME280;69666;52.136;5.424;2023-10-31T03:17:42;148799.69;;;10.82;100.00
77662;BME280;69666;52.136;5.424;2023-10-31T03:20:12;148804.81;;;10.84;100.00
77662;BME280;69666;52.136;5.424;2023-10-31T03:22:41;148802.25;;;10.83;100.00
77662;BME280;69666;52.136;5.424;2023-10-31T03:25:11;148809.94;;;10.86;100.00
77662;BME280;69666;52.136;5.424;2023-10-31T03:27:40;148794.63;;;10.80;100.00
77662;BME280;69666;52.136;5.424;2023-10-31T03:30:10;148804.81;;;10.84;100.00
77662;BME280;69666;52.136;5.424;2023-10-31T03:32:40;148804.81;;;10.84;100.00
77662;BME280;69666;52.136;5.424;2023-10-31T03:35:09;148809.94;;;10.86;100.00
77662;BME280;69666;52.136;5.424;2023-10-31T03:37:39;148806.09;;;10.84;100.00
77662;BME280;69666;52.136;5.424;2023-10-31T03:40:10;148812.50;;;10.87;100.00
77662;BME280;69666;52.136;5.424;2023-10-31T03:42:40;148811.22;;;10.86;100.00
77662;BME280;69666;52.136;5.424;2023-10-31T03:45:09;148808.66;;;10.85;100.00
77662;BME280;69666;52.136;5.424;2023-10-31T03:47:39;148813.78;;;10.87;100.00
77662;BME280;69666;52.136;5.424;2023-10-31T03:50:09;148809.94;;;10.86;100.00
77662;BME280;69666;52.136;5.424;2023-10-31T03:52:38;148813.78;;;10.87;100.00
77662;BME280;69666;52.136;5.424;2023-10-31T03:55:08;148807.38;;;10.85;100.00
77662;BME280;69666;52.136;5.424;2023-10-31T03:57:38;148817.63;;;10.89;100.00
77662;BME280;69666;52.136;5.424;2023-10-31T04:00:08;148815.06;;;10.88;100.00
77662;BME280;69666;52.136;5.424;2023-10-31T04:02:42;148813.78;;;10.87;100.00
77662;BME280;69666;52.136;5.424;2023-10-31T04:05:12;148809.94;;;10.86;100.00
77662;BME280;69666;52.136;5.424;2023-10-31T04:07:41;148804.81;;;10.84;100.00
77662;BME280;69666;52.136;5.424;2023-10-31T04:10:11;148806.09;;;10.84;100.00
77662;BME280;69666;52.136;5.424;2023-10-31T04:12:41;148797.19;;;10.81;100.00
77662;BME280;69666;52.136;5.424;2023-10-31T04:15:11;148798.47;;;10.81;100.00
77662;BME280;69666;52.136;5.424;2023-10-31T04:17:40;148790.78;;;10.78;100.00
77662;BME280;69666;52.136;5.424;2023-10-31T04:20:10;148772.84;;;10.71;100.00
77662;BME280;69666;52.136;5.424;2023-10-31T04:22:40;148792.06;;;10.79;100.00
77662;BME280;69666;52.136;5.424;2023-10-31T04:25:09;148783.09;;;10.75;100.00
77662;BME280;69666;52.136;5.424;2023-10-31T04:27:38;148784.38;;;10.76;100.00
77662;BME280;69666;52.136;5.424;2023-10-31T04:30:08;148779.25;;;10.74;100.00
77662;BME280;69666;52.136;5.424;2023-10-31T04:32:42;148780.53;;;10.74;100.00
77662;BME280;69666;52.136;5.424;2023-10-31T04:35:11;148779.25;;;10.74;100.00
77662;BME280;69666;52.136;5.424;2023-10-31T04:37:41;148776.69;;;10.73;100.00
77662;BME280;69666;52.136;5.424;2023-10-31T04:40:10;148779.25;;;10.74;100.00
77662;BME280;69666;52.136;5.424;2023-10-31T04:42:40;148777.97;;;10.73;100.00
77662;BME280;69666;52.136;5.424;2023-10-31T04:45:10;148770.34;;;10.70;100.00
77662;BME280;69666;52.136;5.424;2023-10-31T04:47:40;148775.41;;;10.72;100.00
77662;BME280;69666;52.136;5.424;2023-10-31T04:50:10;148771.63;;;10.71;100.00
77662;BME280;69666;52.136;5.424;2023-10-31T04:52:39;148781.81;;;10.75;100.00
77662;BME280;69666;52.136;5.424;2023-10-31T04:55:10;148779.25;;;10.74;100.00
77662;BME280;69666;52.136;5.424;2023-10-31T04:57:42;148779.25;;;10.74;100.00
77662;BME280;69666;52.136;5.424;2023-10-31T05:00:12;148772.84;;;10.71;100.00
77662;BME280;69666;52.136;5.424;2023-10-31T05:02:41;148770.34;;;10.70;100.00
77662;BME280;69666;52.136;5.424;2023-10-31T05:05:11;148775.41;;;10.72;100.00
77662;BME280;69666;52.136;5.424;2023-10-31T05:07:40;148766.50;;;10.69;100.00
77662;BME280;69666;52.136;5.424;2023-10-31T05:10:10;148760.09;;;10.66;100.00
77662;BME280;69666;52.136;5.424;2023-10-31T05:12:39;148756.25;;;10.65;100.00
77662;BME280;69666;52.136;5.424;2023-10-31T05:15:09;148753.69;;;10.64;100.00
77662;BME280;69666;52.136;5.424;2023-10-31T05:17:39;148749.84;;;10.62;100.00
77662;BME280;69666;52.136;5.424;2023-10-31T05:20:09;148748.56;;;10.61;100.00
77662;BME280;69666;52.136;5.424;2023-10-31T05:22:40;148743.50;;;10.59;100.00
77662;BME280;69666;52.136;5.424;2023-10-31T05:25:09;148734.53;;;10.56;100.00
77662;BME280;69666;52.136;5.424;2023-10-31T05:27:39;148725.56;;;10.52;100.00
77662;BME280;69666;52.136;5.424;2023-10-31T05:30:09;148730.69;;;10.54;100.00
77662;BME280;69666;52.136;5.424;2023-10-31T05:32:38;148730.69;;;10.54;100.00
77662;BME280;69666;52.136;5.424;2023-10-31T05:35:08;148728.13;;;10.53;100.00
77662;BME280;69666;52.136;5.424;2023-10-31T05:37:37;148726.84;;;10.53;100.00
77662;BME280;69666;52.136;5.424;2023-10-31T05:40:07;148721.72;;;10.51;100.00
77662;BME280;69666;52.136;5.424;2023-10-31T05:42:37;148714.09;;;10.48;100.00
77662;BME280;69666;52.136;5.424;2023-10-31T05:45:06;148716.66;;;10.49;100.00
77662;BME280;69666;52.136;5.424;2023-10-31T05:47:36;148707.69;;;10.45;100.00
77662;BME280;69666;52.136;5.424;2023-10-31T05:50:06;148705.13;;;10.44;100.00
77662;BME280;69666;52.136;5.424;2023-10-31T05:52:35;148702.56;;;10.43;100.00
77662;BME280;69666;52.136;5.424;2023-10-31T05:55:05;148701.28;;;10.43;100.00
77662;BME280;69666;52.136;5.424;2023-10-31T05:57:35;148703.84;;;10.44;100.00
77662;BME280;69666;52.136;5.424;2023-10-31T06:00:08;148700.00;;;10.42;100.00
77662;BME280;69666;52.136;5.424;2023-10-31T06:02:40;148696.16;;;10.41;100.00
77662;BME280;69666;52.136;5.424;2023-10-31T06:05:09;148689.81;;;10.38;100.00
77662;BME280;69666;52.136;5.424;2023-10-31T06:07:39;148694.88;;;10.40;100.00
77662;BME280;69666;52.136;5.424;2023-10-31T06:10:08;148689.81;;;10.38;100.00
77662;BME280;69666;52.136;5.424;2023-10-31T06:12:38;148685.97;;;10.37;100.00
77662;BME280;69666;52.136;5.424;2023-10-31T06:15:08;148687.25;;;10.37;100.00
77662;BME280;69666;52.136;5.424;2023-10-31T06:17:37;148679.56;;;10.34;100.00
77662;BME280;69666;52.136;5.424;2023-10-31T06:20:08;148678.28;;;10.34;100.00
77662;BME280;69666;52.136;5.424;2023-10-31T06:22:38;148677.00;;;10.33;100.00
77662;BME280;69666;52.136;5.424;2023-10-31T06:25:07;148675.72;;;10.33;100.00
77662;BME280;69666;52.136;5.424;2023-10-31T06:27:37;148666.78;;;10.29;100.00
77662;BME280;69666;52.136;5.424;2023-10-31T06:30:06;148669.31;;;10.30;100.00
77662;BME280;69666;52.136;5.424;2023-10-31T06:32:52;148669.31;;;10.30;100.00
77662;BME280;69666;52.136;5.424;2023-10-31T06:35:25;148673.16;;;10.32;100.00
77662;BME280;69666;52.136;5.424;2023-10-31T06:37:55;148670.59;;;10.31;100.00
77662;BME280;69666;52.136;5.424;2023-10-31T06:40:25;148665.50;;;10.29;100.00
77662;BME280;69666;52.136;5.424;2023-10-31T06:42:55;148662.94;;;10.28;100.00
77662;BME280;69666;52.136;5.424;2023-10-31T06:45:24;148668.03;;;10.30;100.00
77662;BME280;69666;52.136;5.424;2023-10-31T06:47:54;148668.03;;;10.30;100.00
77662;BME280;69666;52.136;5.424;2023-10-31T06:50:24;148662.94;;;10.28;100.00
77662;BME280;69666;52.136;5.424;2023-10-31T06:52:53;148666.78;;;10.29;100.00
77662;BME280;69666;52.136;5.424;2023-10-31T06:55:23;148662.94;;;10.28;100.00
77662;BME280;69666;52.136;5.424;2023-10-31T06:57:52;148666.78;;;10.29;100.00
77662;BME280;69666;52.136;5.424;2023-10-31T07:00:22;148664.22;;;10.28;100.00
77662;BME280;69666;52.136;5.424;2023-10-31T07:02:51;148665.50;;;10.29;100.00
77662;BME280;69666;52.136;5.424;2023-10-31T07:05:21;148665.50;;;10.29;100.00
77662;BME280;69666;52.136;5.424;2023-10-31T07:07:50;148661.69;;;10.27;100.00
77662;BME280;69666;52.136;5.424;2023-10-31T07:10:20;148662.94;;;10.28;100.00
77662;BME280;69666;52.136;5.424;2023-10-31T07:12:50;148661.69;;;10.27;100.00
77662;BME280;69666;52.136;5.424;2023-10-31T07:15:19;148656.56;;;10.25;100.00
77662;BME280;69666;52.136;5.424;2023-10-31T07:17:49;148652.72;;;10.23;100.00
77662;BME280;69666;52.136;5.424;2023-10-31T07:20:18;148657.84;;;10.26;100.00
77662;BME280;69666;52.136;5.424;2023-10-31T07:22:48;148656.56;;;10.25;100.00
77662;BME280;69666;52.136;5.424;2023-10-31T07:25:17;148671.88;;;10.31;100.00
77662;BME280;69666;52.136;5.424;2023-10-31T07:27:47;148673.16;;;10.32;100.00
77662;BME280;69666;52.136;5.424;2023-10-31T07:30:16;148679.56;;;10.34;100.00
77662;BME280;69666;52.136;5.424;2023-10-31T07:32:46;148688.53;;;10.38;100.00
77662;BME280;69666;52.136;5.424;2023-10-31T07:35:15;148684.69;;;10.36;100.00
77662;BME280;69666;52.136;5.424;2023-10-31T07:37:45;148702.56;;;10.43;100.00
77662;BME280;69666;52.136;5.424;2023-10-31T07:40:15;148703.84;;;10.44;100.00
77662;BME280;69666;52.136;5.424;2023-10-31T07:42:44;148705.13;;;10.44;100.00
77662;BME280;69666;52.136;5.424;2023-10-31T07:45:13;148712.81;;;10.47;100.00
77662;BME280;69666;52.136;5.424;2023-10-31T07:47:42;148716.66;;;10.49;100.00
77662;BME280;69666;52.136;5.424;2023-10-31T07:50:12;148711.53;;;10.47;100.00
77662;BME280;69666;52.136;5.424;2023-10-31T07:52:41;148714.09;;;10.48;100.00
77662;BME280;69666;52.136;5.424;2023-10-31T07:55:12;148725.56;;;10.52;100.00
77662;BME280;69666;52.136;5.424;2023-10-31T07:57:42;148730.69;;;10.54;100.00
77662;BME280;69666;52.136;5.424;2023-10-31T08:00:12;148730.69;;;10.54;100.00
77662;BME280;69666;52.136;5.424;2023-10-31T08:02:41;148740.94;;;10.58;100.00
77662;BME280;69666;52.136;5.424;2023-10-31T08:05:11;148751.13;;;10.63;100.00
77662;BME280;69666;52.136;5.424;2023-10-31T08:07:41;148758.81;;;10.66;100.00
77662;BME280;69666;52.136;5.424;2023-10-31T08:10:11;148767.78;;;10.69;100.00
77662;BME280;69666;52.136;5.424;2023-10-31T08:12:40;148766.50;;;10.69;100.00
77662;BME280;69666;52.136;5.424;2023-10-31T08:15:10;148765.22;;;10.68;100.00
77662;BME280;69666;52.136;5.424;2023-10-31T08:17:39;148765.22;;;10.68;100.00
77662;BME280;69666;52.136;5.424;2023-10-31T08:20:10;148770.34;;;10.70;100.00
77662;BME280;69666;52.136;5.424;2023-10-31T08:22:41;148771.63;;;10.71;100.00
77662;BME280;69666;52.136;5.424;2023-10-31T08:25:10;148783.09;;;10.75;100.00
77662;BME280;69666;52.136;5.424;2023-10-31T08:27:40;148789.50;;;10.78;100.00
77662;BME280;69666;52.136;5.424;2023-10-31T08:30:10;148798.47;;;10.81;100.00
77662;BME280;69666;52.136;5.424;2023-10-31T08:32:40;148799.69;;;10.82;100.00
77662;BME280;69666;52.136;5.424;2023-10-31T08:35:09;148804.81;;;10.84;100.00
77662;BME280;69666;52.136;5.424;2023-10-31T08:37:39;148818.91;;;10.89;100.00
77662;BME280;69666;52.136;5.424;2023-10-31T08:40:09;148826.53;;;10.92;100.00
77662;BME280;69666;52.136;5.424;2023-10-31T08:42:38;148838.06;;;10.97;100.00
77662;BME280;69666;52.136;5.424;2023-10-31T08:45:09;148855.97;;;11.04;100.00
77662;BME280;69666;52.136;5.424;2023-10-31T08:47:39;148861.09;;;11.06;100.00
77662;BME280;69666;52.136;5.424;2023-10-31T08:50:08;148886.66;;;11.16;100.00
77662;BME280;69666;52.136;5.424;2023-10-31T08:52:39;148895.63;;;11.20;100.00
77662;BME280;69666;52.136;5.424;2023-10-31T08:55:09;148926.34;;;11.32;100.00
77662;BME280;69666;52.136;5.424;2023-10-31T08:57:38;148945.50;;;11.40;100.00
77662;BME280;69666;52.136;5.424;2023-10-31T09:00:08;148967.25;;;11.48;100.00
77662;BME280;69666;52.136;5.424;2023-10-31T09:02:37;148973.66;;;11.51;100.00
77662;BME280;69666;52.136;5.424;2023-10-31T09:05:07;148977.50;;;11.52;100.00
77662;BME280;69666;52.136;5.424;2023-10-31T09:07:36;148982.63;;;11.54;100.00
77662;BME280;69666;52.136;5.424;2023-10-31T09:10:06;148985.19;;;11.55;100.00
77662;BME280;69666;52.136;5.424;2023-10-31T09:12:35;148994.09;;;11.59;100.00
77662;BME280;69666;52.136;5.424;2023-10-31T09:15:05;149001.78;;;11.62;100.00
77662;BME280;69666;52.136;5.424;2023-10-31T09:17:36;149017.19;;;11.68;100.00
77662;BME280;69666;52.136;5.424;2023-10-31T09:20:06;149032.50;;;11.74;100.00
77662;BME280;69666;52.136;5.424;2023-10-31T09:22:37;149054.31;;;11.83;100.00
77662;BME280;69666;52.136;5.424;2023-10-31T09:25:06;149064.56;;;11.87;100.00
77662;BME280;69666;52.136;5.424;2023-10-31T09:27:36;149068.41;;;11.88;100.00
77662;BME280;69666;52.136;5.424;2023-10-31T09:30:06;149083.72;;;11.94;100.00
77662;BME280;69666;52.136;5.424;2023-10-31T09:32:36;149105.47;;;12.03;100.00
77662;BME280;69666;52.136;5.424;2023-10-31T09:35:05;149114.47;;;12.06;100.00
77662;BME280;69666;52.136;5.424;2023-10-31T09:37:36;149145.19;;;12.19;100.00
77662;BME280;69666;52.136;5.424;2023-10-31T09:40:07;149149.03;;;12.20;100.00
77662;BME280;69666;52.136;5.424;2023-10-31T09:42:36;149172.06;;;12.29;100.00
77662;BME280;69666;52.136;5.424;2023-10-31T09:45:06;149186.13;;;12.35;100.00
77662;BME280;69666;52.136;5.424;2023-10-31T09:47:36;149223.25;;;12.50;100.00
77662;BME280;69666;52.136;5.424;2023-10-31T09:50:06;149248.88;;;12.60;100.00
77662;BME280;69666;52.136;5.424;2023-10-31T09:52:38;149223.25;;;12.50;100.00
77662;BME280;69666;52.136;5.424;2023-10-31T09:55:08;149252.72;;;12.61;100.00
77662;BME280;69666;52.136;5.424;2023-10-31T09:57:38;149255.28;;;12.62;100.00
77662;BME280;69666;52.136;5.424;2023-10-31T10:00:08;149291.13;;;12.76;100.00
77662;BME280;69666;52.136;5.424;2023-10-31T10:02:38;149307.78;;;12.83;100.00
77662;BME280;69666;52.136;5.424;2023-10-31T10:05:09;149352.59;;;13.01;100.00
77662;BME280;69666;52.136;5.424;2023-10-31T10:07:42;149420.56;;;13.28;100.00
77662;BME280;69666;52.136;5.424;2023-10-31T10:10:14;149462.84;;;13.44;100.00
77662;BME280;69666;52.136;5.424;2023-10-31T10:12:43;149494.88;;;13.57;100.00
77662;BME280;69666;52.136;5.424;2023-10-31T10:15:14;149534.63;;;13.73;100.00
77662;BME280;69666;52.136;5.424;2023-10-31T10:17:51;149542.28;;;13.76;100.00
77662;BME280;69666;52.136;5.424;2023-10-31T10:20:20;149566.63;;;13.85;100.00
77662;BME280;69666;52.136;5.424;2023-10-31T10:22:50;149591.03;;;13.95;100.00
77662;BME280;69666;52.136;5.424;2023-10-31T10:25:19;149547.41;;;13.78;100.00
77662;BME280;69666;52.136;5.424;2023-10-31T10:27:49;149543.56;;;13.76;100.00
77662;BME280;69666;52.136;5.424;2023-10-31T10:30:18;149524.34;;;13.69;100.00
77662;BME280;69666;52.136;5.424;2023-10-31T10:32:49;149487.16;;;13.54;100.00
77662;BME280;69666;52.136;5.424;2023-10-31T10:35:19;149521.78;;;13.68;100.00
77662;BME280;69666;52.136;5.424;2023-10-31T10:37:52;149585.91;;;13.93;100.00
77662;BME280;69666;52.136;5.424;2023-10-31T10:40:25;149647.41;;;14.17;100.00
77662;BME280;69666;52.136;5.424;2023-10-31T10:42:59;149753.94;;;14.59;100.00
77662;BME280;69666;52.136;5.424;2023-10-31T10:45:30;149838.53;;;14.93;100.00
77662;BME280;69666;52.136;5.424;2023-10-31T10:48:05;149878.34;;;15.09;100.00
77662;BME280;69666;52.136;5.424;2023-10-31T10:50:42;149950.19;;;15.37;100.00
77662;BME280;69666;52.136;5.424;2023-10-31T10:53:23;149959.19;;;15.41;100.00
77662;BME280;69666;52.136;5.424;2023-10-31T10:56:00;149984.84;;;15.51;100.00
77662;BME280;69666;52.136;5.424;2023-10-31T10:58:52;149969.47;;;15.45;100.00
77662;BME280;69666;52.136;5.424;2023-10-31T11:01:24;149957.91;;;15.40;100.00
77662;BME280;69666;52.136;5.424;2023-10-31T11:03:56;149955.34;;;15.39;100.00
77662;BME280;69666;52.136;5.424;2023-10-31T11:06:26;149943.81;;;15.34;100.00
77662;BME280;69666;52.136;5.424;2023-10-31T11:08:56;149956.63;;;15.40;100.00
77662;BME280;69666;52.136;5.424;2023-10-31T11:11:27;149941.25;;;15.33;100.00
77662;BME280;69666;52.136;5.424;2023-10-31T11:13:57;149932.25;;;15.30;100.00
77662;BME280;69666;52.136;5.424;2023-10-31T11:16:53;149902.72;;;15.18;100.00
77662;BME280;69666;52.136;5.424;2023-10-31T11:19:24;149862.97;;;15.03;100.00
77662;BME280;69666;52.136;5.424;2023-10-31T11:22:00;149864.25;;;15.03;100.00
77662;BME280;69666;52.136;5.424;2023-10-31T11:24:37;149866.78;;;15.04;100.00
77662;BME280;69666;52.136;5.424;2023-10-31T11:27:07;149825.75;;;14.88;100.00
77662;BME280;69666;52.136;5.424;2023-10-31T11:29:37;149802.66;;;14.79;100.00
77662;BME280;69666;52.136;5.424;2023-10-31T11:32:11;149796.22;;;14.76;100.00
77662;BME280;69666;52.136;5.424;2023-10-31T11:34:42;149747.50;;;14.57;100.00
77662;BME280;69666;52.136;5.424;2023-10-31T11:37:37;149734.66;;;14.52;100.00
77662;BME280;69666;52.136;5.424;2023-10-31T11:42:50;149689.72;;;14.34;100.00
77662;BME280;69666;52.136;5.424;2023-10-31T11:45:42;149671.78;;;14.27;100.00
77662;BME280;69666;52.136;5.424;2023-10-31T11:48:16;149642.31;;;14.15;100.00
77662;BME280;69666;52.136;5.424;2023-10-31T11:50:45;149603.81;;;14.00;100.00
77662;BME280;69666;52.136;5.424;2023-10-31T11:53:15;149580.75;;;13.91;100.00
77662;BME280;69666;52.136;5.424;2023-10-31T11:55:46;149561.53;;;13.83;100.00
77662;BME280;69666;52.136;5.424;2023-10-31T11:58:19;149566.63;;;13.85;100.00
77662;BME280;69666;52.136;5.424;2023-10-31T12:00:53;149562.81;;;13.84;100.00
77662;BME280;69666;52.136;5.424;2023-10-31T12:06:10;149537.16;;;13.74;100.00
77662;BME280;69666;52.136;5.424;2023-10-31T12:08:41;149543.56;;;13.76;100.00
77662;BME280;69666;52.136;5.424;2023-10-31T12:11:16;149523.06;;;13.68;100.00
77662;BME280;69666;52.136;5.424;2023-10-31T12:13:59;149497.44;;;13.58;100.00
77662;BME280;69666;52.136;5.424;2023-10-31T12:16:32;149496.16;;;13.58;100.00
77662;BME280;69666;52.136;5.424;2023-10-31T12:19:03;149501.28;;;13.60;100.00
77662;BME280;69666;52.136;5.424;2023-10-31T12:21:45;149501.28;;;13.60;100.00
77662;BME280;69666;52.136;5.424;2023-10-31T12:24:17;149479.53;;;13.51;100.00
77662;BME280;69666;52.136;5.424;2023-10-31T12:26:47;149475.66;;;13.49;100.00
77662;BME280;69666;52.136;5.424;2023-10-31T12:29:18;149462.84;;;13.44;100.00
77662;BME280;69666;52.136;5.424;2023-10-31T12:31:49;149451.31;;;13.40;100.00
77662;BME280;69666;52.136;5.424;2023-10-31T12:34:25;149452.59;;;13.40;100.00
77662;BME280;69666;52.136;5.424;2023-10-31T12:36:55;149432.06;;;13.32;100.00
77662;BME280;69666;52.136;5.424;2023-10-31T12:39:28;149433.34;;;13.33;100.00
77662;BME280;69666;52.136;5.424;2023-10-31T12:41:58;149425.69;;;13.30;100.00
77662;BME280;69666;52.136;5.424;2023-10-31T12:44:29;149427.00;;;13.30;100.00
77662;BME280;69666;52.136;5.424;2023-10-31T12:46:58;149428.22;;;13.31;100.00
77662;BME280;69666;52.136;5.424;2023-10-31T12:49:28;149420.56;;;13.28;100.00
77662;BME280;69666;52.136;5.424;2023-10-31T12:52:01;149439.78;;;13.35;100.00
77662;BME280;69666;52.136;5.424;2023-10-31T12:54:34;149442.34;;;13.36;100.00
77662;BME280;69666;52.136;5.424;2023-10-31T12:57:08;149439.78;;;13.35;100.00
77662;BME280;69666;52.136;5.424;2023-10-31T12:59:38;149441.06;;;13.36;100.00
77662;BME280;69666;52.136;5.424;2023-10-31T13:02:08;149434.63;;;13.33;100.00